createdAt,value
2019-02-10T00:01:55.214Z,68.70
2019-02-10T00:04:27.947Z,68.80
2019-02-10T00:07:00.887Z,68.90
2019-02-10T00:09:34.266Z,69.00
2019-02-10T00:12:06.448Z,68.90
2019-02-10T00:14:39.247Z,69.10
2019-02-10T00:17:11.471Z,68.90
2019-02-10T00:19:43.888Z,68.80
2019-02-10T00:22:16.780Z,68.50
2019-02-10T00:24:50.028Z,68.30
2019-02-10T00:27:23.127Z,68.60
2019-02-10T00:29:56.347Z,67.90
2019-02-10T00:32:28.749Z,67.80
2019-02-10T00:35:01.449Z,67.60
2019-02-10T00:37:34.150Z,67.60
2019-02-10T00:40:06.431Z,67.80
2019-02-10T00:42:39.038Z,67.70
2019-02-10T00:45:11.367Z,67.60
2019-02-10T00:47:43.428Z,67.30
2019-02-10T00:50:16.387Z,67.20
2019-02-10T00:52:48.847Z,66.90
2019-02-10T00:55:20.918Z,66.60
2019-02-10T00:57:53.247Z,66.40
2019-02-10T01:00:26.047Z,66.50
2019-02-10T01:02:58.347Z,66.40
2019-02-10T01:05:30.689Z,66.10
2019-02-10T01:08:04.229Z,65.30
2019-02-10T01:10:36.489Z,65.20
2019-02-10T01:13:08.687Z,65.30
2019-02-10T01:15:41.526Z,65.30
2019-02-10T01:18:13.309Z,65.30
2019-02-10T01:20:46.307Z,65.30
2019-02-10T01:23:18.487Z,65.20
2019-02-10T01:25:50.646Z,65.40
2019-02-10T01:28:23.287Z,65.30
2019-02-10T01:30:58.947Z,65.20
2019-02-10T01:33:31.367Z,65.10
2019-02-10T01:36:03.668Z,64.70
2019-02-10T01:38:36.488Z,64.70
2019-02-10T01:41:09.087Z,65.10
2019-02-10T01:43:41.127Z,65.00
2019-02-10T01:46:13.989Z,64.90
2019-02-10T01:48:46.287Z,64.70
2019-02-10T01:51:19.128Z,64.70
2019-02-10T01:53:52.270Z,64.50
2019-02-10T01:56:25.067Z,64.40
2019-02-10T01:58:57.608Z,64.00
2019-02-10T02:01:30.567Z,63.90
2019-02-10T02:04:03.048Z,63.70
2019-02-10T02:06:36.127Z,63.90
2019-02-10T02:09:11.546Z,64.20
2019-02-10T02:11:44.347Z,64.20
2019-02-10T02:14:17.207Z,64.10
2019-02-10T02:16:49.169Z,63.90
2019-02-10T02:19:21.770Z,64.10
2019-02-10T02:21:54.666Z,64.20
2019-02-10T02:24:26.527Z,63.90
2019-02-10T02:26:59.307Z,64.00
2019-02-10T02:29:31.607Z,64.20
2019-02-10T02:32:04.826Z,64.70
2019-02-10T02:34:37.548Z,64.30
2019-02-10T02:37:09.767Z,63.80
2019-02-10T02:39:42.766Z,63.90
2019-02-10T02:42:16.053Z,64.10
2019-02-10T02:44:49.143Z,64.40
2019-02-10T02:47:21.526Z,64.20
2019-02-10T02:49:53.807Z,64.40
2019-02-10T02:52:26.846Z,65.50
2019-02-10T02:54:58.846Z,66.80
2019-02-10T02:57:31.170Z,67.50
2019-02-10T03:00:04.347Z,67.80
2019-02-10T03:02:37.206Z,67.90
2019-02-10T03:05:10.129Z,67.60
2019-02-10T03:07:42.727Z,67.30
2019-02-10T03:10:15.667Z,66.80
2019-02-10T03:12:47.466Z,66.10
2019-02-10T03:15:20.290Z,64.60
2019-02-10T03:17:52.650Z,64.00
2019-02-10T03:20:24.929Z,63.40
2019-02-10T03:22:58.208Z,63.60
2019-02-10T03:25:31.169Z,64.00
2019-02-10T03:28:03.986Z,64.20
2019-02-10T03:30:35.411Z,64.10
2019-02-10T03:33:08.869Z,63.90
2019-02-10T03:35:41.206Z,63.20
2019-02-10T03:38:14.287Z,62.50
2019-02-10T03:40:46.387Z,62.80
2019-02-10T03:43:19.209Z,63.00
2019-02-10T03:45:51.207Z,63.80
2019-02-10T03:48:24.130Z,64.10
2019-02-10T03:50:56.406Z,64.00
2019-02-10T03:53:29.487Z,64.20
2019-02-10T03:56:02.349Z,64.30
2019-02-10T03:58:36.109Z,64.40
2019-02-10T04:01:08.773Z,65.30
2019-02-10T04:03:41.628Z,65.30
2019-02-10T04:06:14.130Z,64.20
2019-02-10T04:08:47.128Z,63.70
2019-02-10T04:11:20.607Z,63.40
2019-02-10T04:13:53.948Z,63.40
2019-02-10T04:16:26.787Z,63.40
2019-02-10T04:18:59.026Z,63.50
2019-02-10T04:21:31.707Z,63.80
2019-02-10T04:24:04.507Z,64.40
2019-02-10T04:26:37.326Z,63.80
2019-02-10T04:29:09.310Z,64.00
2019-02-10T04:31:42.727Z,64.40
2019-02-10T04:34:16.186Z,64.70
2019-02-10T04:36:49.148Z,65.10
2019-02-10T04:39:21.786Z,66.20
2019-02-10T04:41:53.866Z,67.00
2019-02-10T04:44:26.431Z,67.90
2019-02-10T04:46:58.646Z,68.20
2019-02-10T04:49:30.988Z,68.60
2019-02-10T04:52:03.647Z,68.80
2019-02-10T04:54:35.709Z,68.90
2019-02-10T04:57:07.989Z,69.20
2019-02-10T04:59:40.567Z,69.30
2019-02-10T05:02:12.966Z,69.20
2019-02-10T05:04:45.767Z,69.40
2019-02-10T05:07:18.447Z,69.50
2019-02-10T05:09:51.167Z,69.60
2019-02-10T05:12:24.207Z,69.60
2019-02-10T05:14:56.927Z,69.50
2019-02-10T05:17:29.929Z,69.70
2019-02-10T05:20:02.509Z,69.80
2019-02-10T05:22:35.629Z,70.20
2019-02-10T05:25:08.526Z,70.40
2019-02-10T05:27:41.267Z,70.40
2019-02-10T05:30:13.849Z,70.50
2019-02-10T05:32:46.248Z,70.70
2019-02-10T05:35:19.188Z,70.80
2019-02-10T05:37:51.807Z,70.80
2019-02-10T05:40:24.248Z,70.80
2019-02-10T05:42:56.346Z,70.80
2019-02-10T05:45:29.747Z,71.30
2019-02-10T05:48:02.427Z,70.80
2019-02-10T05:50:34.547Z,71.00
2019-02-10T05:53:07.088Z,71.10
2019-02-10T05:55:39.427Z,71.20
2019-02-10T05:58:11.887Z,71.10
2019-02-10T06:00:44.770Z,71.40
2019-02-10T06:03:17.589Z,71.20
2019-02-10T06:05:50.366Z,71.30
2019-02-10T06:08:22.967Z,71.20
2019-02-10T06:10:56.127Z,71.50
2019-02-10T06:13:29.247Z,71.70
2019-02-10T06:16:01.567Z,71.80
2019-02-10T06:18:34.412Z,72.50
2019-02-10T06:21:06.647Z,73.40
2019-02-10T06:23:38.867Z,73.20
2019-02-10T06:26:11.448Z,73.30
2019-02-10T06:28:43.808Z,72.90
2019-02-10T06:31:16.967Z,72.70
2019-02-10T06:33:48.888Z,72.00
2019-02-10T06:36:21.768Z,71.40
2019-02-10T06:38:54.987Z,71.60
2019-02-10T06:41:28.507Z,71.70
2019-02-10T06:44:01.366Z,71.60
2019-02-10T06:46:33.747Z,71.70
2019-02-10T06:49:06.506Z,71.50
2019-02-10T06:51:39.127Z,71.50
2019-02-10T06:54:11.251Z,71.50
2019-02-10T06:56:44.908Z,71.00
2019-02-10T06:59:40.926Z,71.00
2019-02-10T07:02:30.903Z,71.30
2019-02-10T07:05:03.730Z,71.20
2019-02-10T07:07:36.614Z,71.40
2019-02-10T07:10:09.666Z,71.20
2019-02-10T07:12:52.150Z,71.40
2019-02-10T07:16:02.667Z,70.90
2019-02-10T07:19:09.067Z,70.10
2019-02-10T07:21:44.609Z,69.90
2019-02-10T07:24:37.487Z,69.70
2019-02-10T07:27:21.327Z,69.80
2019-02-10T07:30:36.927Z,70.00
2019-02-10T07:33:46.868Z,70.70
2019-02-10T07:37:00.668Z,70.60
2019-02-10T07:39:54.007Z,70.50
2019-02-10T07:42:51.447Z,70.80
2019-02-10T07:46:10.307Z,71.50
2019-02-10T07:49:31.768Z,71.60
2019-02-10T07:52:19.908Z,71.80
2019-02-10T07:55:35.588Z,71.70
2019-02-10T07:58:34.770Z,73.00
2019-02-10T08:01:20.129Z,74.40
2019-02-10T08:04:29.067Z,73.80
2019-02-10T08:07:30.346Z,73.10
2019-02-10T08:10:16.686Z,72.70
2019-02-10T08:13:25.668Z,72.10
2019-02-10T08:17:02.230Z,70.50
2019-02-10T08:19:59.907Z,71.10
2019-02-10T08:23:04.248Z,70.50
2019-02-10T08:26:20.829Z,70.40
2019-02-10T08:29:28.739Z,70.50
2019-02-10T08:32:38.686Z,69.80
2019-02-10T08:35:53.246Z,69.80
2019-02-10T08:39:03.266Z,69.80
2019-02-10T08:41:44.727Z,70.10
2019-02-10T08:45:18.006Z,69.50
2019-02-10T08:48:39.986Z,68.40
2019-02-10T08:51:57.094Z,67.70
2019-02-10T08:54:29.347Z,68.40
2019-02-10T08:57:01.769Z,68.90
2019-02-10T08:59:34.107Z,67.50
2019-02-10T09:02:06.367Z,68.00
2019-02-10T09:04:39.608Z,68.10
2019-02-10T09:07:12.306Z,68.00
2019-02-10T09:09:44.607Z,69.80
2019-02-10T09:12:17.246Z,70.20
2019-02-10T09:14:50.666Z,69.50
2019-02-10T09:17:23.166Z,68.80
2019-02-10T09:19:55.306Z,68.50
2019-02-10T09:22:28.289Z,67.80
2019-02-10T09:25:01.627Z,68.10
2019-02-10T09:27:33.787Z,68.30
2019-02-10T09:30:07.348Z,66.60
2019-02-10T09:32:40.287Z,66.70
2019-02-10T09:35:13.787Z,67.00
2019-02-10T09:37:46.767Z,66.40
2019-02-10T09:40:19.927Z,66.30
2019-02-10T09:42:52.327Z,66.00
2019-02-10T09:45:25.186Z,67.10
2019-02-10T09:47:57.646Z,67.60
2019-02-10T09:50:29.810Z,68.10
2019-02-10T09:53:02.349Z,66.60
2019-02-10T09:55:35.126Z,69.40
2019-02-10T09:58:07.168Z,65.70
2019-02-10T10:00:40.047Z,65.90
2019-02-10T10:03:13.046Z,66.10
2019-02-10T10:05:46.447Z,66.20
2019-02-10T10:08:18.148Z,66.30
2019-02-10T10:10:51.108Z,66.90
2019-02-10T10:13:23.928Z,66.20
2019-02-10T10:15:56.346Z,65.90
2019-02-10T10:18:28.806Z,65.30
2019-02-10T10:21:01.386Z,65.70
2019-02-10T10:23:33.628Z,66.00
2019-02-10T10:26:06.188Z,65.60
2019-02-10T10:28:39.627Z,65.30
2019-02-10T10:31:13.469Z,65.10
2019-02-10T10:33:46.867Z,64.40
2019-02-10T10:36:20.607Z,64.70
2019-02-10T10:38:54.166Z,64.50
2019-02-10T10:41:27.402Z,63.40
2019-02-10T10:43:59.906Z,60.80
2019-02-10T10:46:32.923Z,61.50
2019-02-10T10:49:05.365Z,61.30
2019-02-10T10:51:36.922Z,61.20
2019-02-10T10:54:10.323Z,60.40
2019-02-10T10:56:43.351Z,60.70
2019-02-10T10:59:16.128Z,59.90
2019-02-10T11:01:47.871Z,61.70
2019-02-10T11:04:20.313Z,60.80
2019-02-10T11:06:52.430Z,59.80
2019-02-10T11:09:25.592Z,60.10
2019-02-10T11:11:58.792Z,57.60
2019-02-10T11:14:31.931Z,57.70
2019-02-10T11:17:04.490Z,58.20
2019-02-10T11:19:36.730Z,58.10
2019-02-10T11:22:09.591Z,58.20
2019-02-10T11:24:42.752Z,57.90
2019-02-10T11:27:15.551Z,58.30
2019-02-10T11:29:47.691Z,58.50
2019-02-10T11:32:19.950Z,59.00
2019-02-10T11:34:53.150Z,57.70
2019-02-10T11:37:26.872Z,58.50
2019-02-10T11:39:59.333Z,58.90
2019-02-10T11:42:31.312Z,58.20
2019-02-10T11:45:03.371Z,58.70
2019-02-10T11:47:35.830Z,59.00
2019-02-10T11:50:08.511Z,58.70
2019-02-10T11:52:40.311Z,58.00
2019-02-10T11:55:13.419Z,57.20
2019-02-10T11:57:46.612Z,55.70
2019-02-10T12:00:19.630Z,55.10
2019-02-10T12:02:52.172Z,54.70
2019-02-10T12:05:24.791Z,53.30
2019-02-10T12:07:57.772Z,49.90
2019-02-10T12:10:30.811Z,48.10
2019-02-10T12:13:03.491Z,47.90
2019-02-10T12:15:35.832Z,46.20
2019-02-10T12:18:08.691Z,45.40
2019-02-10T12:20:41.991Z,44.20
2019-02-10T12:23:14.291Z,44.80
2019-02-10T12:25:46.895Z,43.40
2019-02-10T12:28:20.011Z,42.50
2019-02-10T12:30:51.550Z,42.80
2019-02-10T12:33:23.851Z,41.40
2019-02-10T12:35:58.430Z,40.60
2019-02-10T12:38:31.074Z,41.50
2019-02-10T12:41:03.554Z,40.30
2019-02-10T12:43:35.871Z,40.40
2019-02-10T12:46:08.490Z,40.90
2019-02-10T12:48:40.871Z,41.80
2019-02-10T12:51:13.735Z,41.40
2019-02-10T12:53:46.736Z,40.50
2019-02-10T12:56:20.151Z,40.60
2019-02-10T12:58:52.953Z,41.00
2019-02-10T13:01:25.110Z,41.10
2019-02-10T13:03:58.191Z,40.70
2019-02-10T13:06:31.425Z,40.20
2019-02-10T13:09:05.411Z,39.90
2019-02-10T13:11:37.812Z,39.70
2019-02-10T13:14:13.271Z,40.70
2019-02-10T13:16:47.232Z,40.10
2019-02-10T13:19:19.712Z,40.30
2019-02-10T13:21:52.311Z,40.00
2019-02-10T13:24:24.816Z,40.20
2019-02-10T13:26:57.950Z,39.90
2019-02-10T13:29:30.473Z,39.30
2019-02-10T13:32:03.270Z,39.30
2019-02-10T13:34:37.111Z,40.20
2019-02-10T13:37:10.071Z,39.50
2019-02-10T13:39:42.511Z,38.90
2019-02-10T13:42:15.453Z,39.80
2019-02-10T13:44:47.650Z,38.60
2019-02-10T13:47:19.971Z,39.00
2019-02-10T13:49:52.992Z,38.70
2019-02-10T13:52:34.751Z,39.30
2019-02-10T13:55:06.992Z,39.10
2019-02-10T13:57:40.772Z,39.00
2019-02-10T14:00:17.712Z,39.10
2019-02-10T14:02:50.493Z,38.80
2019-02-10T14:05:23.290Z,38.80
2019-02-10T14:07:55.572Z,39.70
2019-02-10T14:10:28.237Z,42.20
2019-02-10T14:13:03.172Z,42.90
2019-02-10T14:15:35.573Z,44.10
2019-02-10T14:18:08.657Z,44.60
2019-02-10T14:20:41.554Z,44.60
2019-02-10T14:23:13.711Z,45.00
2019-02-10T14:25:46.471Z,45.60
2019-02-10T14:28:19.293Z,45.30
2019-02-10T14:30:51.552Z,45.60
2019-02-10T14:33:23.511Z,46.40
2019-02-10T14:35:56.753Z,46.40
2019-02-10T14:38:36.237Z,46.20
2019-02-10T14:41:04.511Z,46.30
2019-02-10T14:43:36.635Z,47.00
2019-02-10T14:46:09.391Z,47.20
2019-02-10T14:48:42.430Z,46.90
2019-02-10T14:51:14.730Z,47.00
2019-02-10T14:53:47.972Z,46.70
2019-02-10T14:56:20.892Z,48.40
2019-02-10T14:58:54.050Z,48.10
2019-02-10T15:01:26.112Z,48.50
2019-02-10T15:03:58.791Z,49.60
2019-02-10T15:06:31.832Z,49.50
2019-02-10T15:09:06.232Z,49.60
2019-02-10T15:11:39.011Z,49.60
2019-02-10T15:14:12.073Z,50.40
2019-02-10T15:16:44.901Z,50.80
2019-02-10T15:19:18.191Z,50.50
2019-02-10T15:21:50.591Z,50.90
2019-02-10T15:24:23.412Z,51.40
2019-02-10T15:26:55.330Z,50.60
2019-02-10T15:29:27.741Z,50.80
2019-02-10T15:32:00.894Z,50.80
2019-02-10T15:34:32.970Z,51.40
2019-02-10T15:37:06.210Z,50.60
2019-02-10T15:39:38.632Z,50.80
2019-02-10T15:42:11.433Z,50.00
2019-02-10T15:44:45.663Z,50.50
2019-02-10T15:47:18.371Z,49.60
2019-02-10T15:49:51.992Z,50.50
2019-02-10T15:52:24.892Z,49.80
2019-02-10T15:54:58.451Z,50.70
2019-02-10T15:57:30.991Z,49.80
2019-02-10T16:00:02.971Z,50.20
2019-02-10T16:02:36.833Z,50.00
2019-02-10T16:05:10.030Z,50.30
2019-02-10T16:07:42.271Z,50.90
2019-02-10T16:10:14.691Z,50.70
2019-02-10T16:12:47.779Z,50.90
2019-02-10T16:15:19.850Z,50.30
2019-02-10T16:17:52.551Z,50.90
2019-02-10T16:20:25.611Z,50.90
2019-02-10T16:22:58.570Z,49.80
2019-02-10T16:25:31.391Z,49.80
2019-02-10T16:28:03.753Z,50.20
2019-02-10T16:30:36.292Z,50.30
2019-02-10T16:33:08.070Z,50.50
2019-02-10T16:35:40.631Z,50.90
2019-02-10T16:38:14.051Z,50.80
2019-02-10T16:40:46.872Z,51.60
2019-02-10T16:43:18.991Z,50.80
2019-02-10T16:45:52.631Z,51.30
2019-02-10T16:48:25.391Z,52.00
2019-02-10T16:50:57.550Z,51.70
2019-02-10T16:53:30.271Z,52.00
2019-02-10T16:56:03.391Z,53.20
2019-02-10T16:58:35.771Z,54.90
2019-02-10T17:01:08.072Z,56.50
2019-02-10T17:03:40.852Z,61.10
2019-02-10T17:06:13.651Z,64.80
2019-02-10T17:08:45.772Z,67.50
2019-02-10T17:11:19.352Z,69.90
2019-02-10T17:13:52.151Z,71.30
2019-02-10T17:16:23.990Z,71.90
2019-02-10T17:18:57.394Z,71.50
2019-02-10T17:21:30.211Z,71.50
2019-02-10T17:24:04.053Z,71.90
2019-02-10T17:26:36.791Z,72.40
2019-02-10T17:29:08.852Z,72.80
2019-02-10T17:31:41.772Z,72.00
2019-02-10T17:34:13.812Z,72.80
2019-02-10T17:36:46.194Z,72.80
2019-02-10T17:39:21.712Z,72.60
2019-02-10T17:41:53.891Z,72.00
2019-02-10T17:44:26.155Z,71.30
2019-02-10T17:46:58.995Z,71.70
2019-02-10T17:49:31.632Z,71.50
2019-02-10T17:52:04.012Z,71.50
2019-02-10T17:54:37.014Z,71.40
2019-02-10T17:57:09.311Z,72.20
2019-02-10T17:59:42.072Z,71.80
2019-02-10T18:02:15.022Z,72.40
2019-02-10T18:04:48.317Z,72.80
2019-02-10T18:07:20.628Z,73.40
2019-02-10T18:09:53.571Z,73.40
2019-02-10T18:12:25.796Z,72.30
2019-02-10T18:15:22.670Z,73.40
2019-02-10T18:18:12.651Z,72.80
2019-02-10T18:21:03.871Z,72.80
2019-02-10T18:23:54.431Z,72.80
2019-02-10T18:26:50.351Z,73.00
2019-02-10T18:29:40.810Z,72.80
2019-02-10T18:32:35.151Z,72.60
2019-02-10T18:35:21.034Z,72.70
2019-02-10T18:38:20.993Z,72.30
2019-02-10T18:41:18.411Z,71.90
2019-02-10T18:44:10.478Z,72.20
2019-02-10T18:47:10.171Z,71.90
2019-02-10T18:50:01.670Z,71.20
2019-02-10T18:52:58.352Z,70.50
2019-02-10T18:55:54.971Z,69.10
2019-02-10T18:58:40.071Z,69.90
2019-02-10T19:01:40.830Z,69.10
2019-02-10T19:04:32.352Z,68.30
2019-02-10T19:07:32.290Z,68.70
2019-02-10T19:10:15.871Z,67.10
2019-02-10T19:13:10.751Z,67.20
2019-02-10T19:16:14.550Z,65.30
2019-02-10T19:19:21.190Z,64.20
2019-02-10T19:22:14.751Z,64.30
2019-02-10T19:25:14.710Z,63.20
2019-02-10T19:28:04.171Z,62.30
2019-02-10T19:30:47.252Z,62.20
2019-02-10T19:33:56.711Z,61.40
2019-02-10T19:36:50.153Z,60.80
2019-02-10T19:39:50.494Z,60.90
2019-02-10T19:42:33.071Z,62.20
2019-02-10T19:45:22.810Z,60.30
2019-02-10T19:48:16.372Z,58.60
2019-02-10T19:51:16.832Z,58.50
2019-02-10T19:54:13.990Z,58.40
2019-02-10T19:57:03.492Z,58.20
2019-02-10T20:00:01.391Z,58.50
2019-02-10T20:02:47.531Z,57.60
2019-02-10T20:05:37.532Z,58.10
2019-02-10T20:08:32.412Z,57.90
2019-02-10T20:11:23.370Z,56.90
2019-02-10T20:14:13.631Z,56.80
2019-02-10T20:17:02.075Z,55.70
2019-02-10T20:19:43.112Z,56.10
2019-02-10T20:22:26.811Z,57.50
2019-02-10T20:25:25.371Z,55.80
2019-02-10T20:28:12.810Z,57.00
2019-02-10T20:30:57.131Z,56.60
2019-02-10T20:33:57.949Z,57.20
2019-02-10T20:36:48.631Z,57.70
2019-02-10T20:39:39.631Z,57.30
2019-02-10T20:42:33.471Z,56.70
2019-02-10T20:45:20.130Z,56.70
2019-02-10T20:48:09.631Z,56.50
2019-02-10T20:51:14.970Z,56.80
2019-02-10T20:54:17.751Z,56.80
2019-02-10T20:57:00.791Z,57.10
2019-02-10T20:59:40.291Z,57.80
2019-02-10T21:02:31.551Z,57.60
2019-02-10T21:05:21.031Z,57.80
2019-02-10T21:08:12.511Z,57.60
2019-02-10T21:11:06.131Z,56.90
2019-02-10T21:13:56.895Z,57.10
2019-02-10T21:16:40.751Z,56.50
2019-02-10T21:19:37.871Z,56.10
2019-02-10T21:22:28.650Z,56.40
2019-02-10T21:25:07.330Z,57.00
2019-02-10T21:28:04.252Z,56.40
2019-02-10T21:30:53.732Z,56.20
2019-02-10T21:33:47.050Z,55.60
2019-02-10T21:36:52.914Z,57.50
2019-02-10T21:39:42.610Z,58.30
2019-02-10T21:42:29.055Z,59.40
2019-02-10T21:45:18.050Z,60.30
2019-02-10T21:48:01.732Z,61.00
2019-02-10T21:50:34.651Z,61.70
2019-02-10T21:53:06.997Z,62.40
2019-02-10T21:55:39.550Z,62.70
2019-02-10T21:58:12.791Z,62.90
2019-02-10T22:00:46.010Z,62.90
2019-02-10T22:03:19.350Z,63.00
2019-02-10T22:05:52.932Z,63.50
2019-02-10T22:08:25.230Z,63.90
2019-02-10T22:10:57.831Z,64.30
2019-02-10T22:13:30.677Z,64.30
2019-02-10T22:16:03.111Z,64.50
2019-02-10T22:18:35.771Z,64.60
2019-02-10T22:21:08.412Z,64.70
2019-02-10T22:23:41.151Z,64.30
2019-02-10T22:26:14.070Z,64.70
2019-02-10T22:28:46.930Z,65.10
2019-02-10T22:31:19.470Z,65.10
2019-02-10T22:33:52.312Z,64.70
2019-02-10T22:36:25.332Z,64.80
2019-02-10T22:38:58.691Z,64.40
2019-02-10T22:41:32.451Z,64.30
2019-02-10T22:44:06.010Z,64.70
2019-02-10T22:46:39.571Z,65.00
2019-02-10T22:49:12.370Z,64.80
2019-02-10T22:51:45.251Z,64.40
2019-02-10T22:54:17.971Z,64.00
2019-02-10T22:56:51.192Z,64.00
2019-02-10T22:59:24.492Z,64.40
2019-02-10T23:01:57.171Z,64.10
2019-02-10T23:04:30.571Z,64.20
2019-02-10T23:07:02.472Z,64.30
2019-02-10T23:09:34.850Z,64.20
2019-02-10T23:12:07.651Z,63.70
2019-02-10T23:14:40.192Z,64.00
2019-02-10T23:17:12.891Z,64.00
2019-02-10T23:19:45.934Z,63.30
2019-02-10T23:22:19.210Z,64.20
2019-02-10T23:24:51.811Z,64.70
2019-02-10T23:27:24.571Z,64.30
2019-02-10T23:29:57.111Z,64.40
2019-02-10T23:32:30.052Z,64.60
2019-02-10T23:35:03.131Z,65.20
2019-02-10T23:37:35.471Z,65.00
2019-02-10T23:40:07.852Z,65.20
2019-02-10T23:42:40.853Z,65.30
2019-02-10T23:45:13.432Z,64.00
2019-02-10T23:47:46.211Z,64.50
2019-02-10T23:50:19.250Z,64.00
2019-02-10T23:52:52.390Z,63.10
2019-02-10T23:55:25.290Z,63.00
2019-02-10T23:57:57.332Z,63.00
